Time;durP1;ratioP1;P1;durP2;ratioP2;P2;SDS_P1;SDS_P2;PMS_P1;PMS_P2;Temp;Humidity;BMP_temperature;BMP_pressure;BME280_temperature;BME280_humidity;BME280_pressure;Samples;Min_cycle;Max_cycle;Signal;HPM_P1;HPM_P2
2023/11/16 00:02:21;;;;;;;0.00;0.00;;;8.10;99.90;;;;;;5036841;28;20077;-69
2023/11/16 00:04:50;;;;;;;0.15;0.15;;;8.10;99.90;;;;;;5007658;28;20100;-69
2023/11/16 00:07:16;;;;;;;0.00;0.00;;;8.10;99.90;;;;;;5008746;28;20045;-69
2023/11/16 00:09:41;;;;;;;0.20;0.00;;;8.10;99.90;;;;;;5036463;28;20096;-69
2023/11/16 00:12:07;;;;;;;2.75;0.10;;;8.20;99.90;;;;;;5006869;28;20056;-69
2023/11/16 00:14:34;;;;;;;0.52;0.00;;;8.20;99.90;;;;;;5007900;28;20080;-69
2023/11/16 00:17:03;;;;;;;0.43;0.05;;;8.20;99.90;;;;;;5005262;28;20491;-68
2023/11/16 00:19:28;;;;;;;0.03;0.00;;;8.20;99.90;;;;;;5006182;28;20069;-69
2023/11/16 00:21:54;;;;;;;0.00;0.00;;;8.20;99.90;;;;;;5003267;28;20073;-69
2023/11/16 00:24:20;;;;;;;0.15;0.00;;;8.10;99.90;;;;;;5037655;28;20125;-69
2023/11/16 00:26:46;;;;;;;0.13;0.03;;;8.10;99.90;;;;;;5000332;28;20046;-69
2023/11/16 00:29:12;;;;;;;8.10;0.10;;;8.10;99.90;;;;;;5006988;28;20042;-69
2023/11/16 00:31:38;;;;;;;0.05;0.03;;;8.00;99.90;;;;;;5004203;28;20038;-69
2023/11/16 00:34:05;;;;;;;1.00;0.20;;;8.10;99.90;;;;;;5005133;28;20057;-69
2023/11/16 00:36:31;;;;;;;0.45;0.05;;;8.10;99.90;;;;;;5001907;28;20101;-69
2023/11/16 00:38:58;;;;;;;0.00;0.00;;;8.10;99.90;;;;;;5041863;28;20425;-69
2023/11/16 00:41:25;;;;;;;1.38;0.20;;;8.10;99.90;;;;;;5034773;28;20467;-69
2023/11/16 00:43:50;;;;;;;0.00;0.00;;;8.10;99.90;;;;;;5008620;28;20466;-69
2023/11/16 00:46:16;;;;;;;6.30;0.30;;;8.10;99.90;;;;;;5003331;28;20042;-69
2023/11/16 00:48:43;;;;;;;0.22;0.00;;;8.10;99.90;;;;;;5039454;28;20160;-69
2023/11/16 00:51:11;;;;;;;0.47;0.10;;;8.10;99.90;;;;;;5037577;28;20121;-68
2023/11/16 00:53:42;;;;;;;0.55;0.20;;;8.10;99.90;;;;;;5031646;28;20137;-69
2023/11/16 00:56:09;;;;;;;1.20;0.00;;;8.20;99.90;;;;;;5036853;28;20202;-69
2023/11/16 00:58:38;;;;;;;3.15;0.52;;;8.20;99.90;;;;;;5002741;28;20533;-69
2023/11/16 01:01:05;;;;;;;0.30;0.08;;;8.30;99.90;;;;;;5005893;28;20087;-69
2023/11/16 01:03:36;;;;;;;2.45;0.00;;;8.30;99.90;;;;;;5041725;28;20049;-69
2023/11/16 01:06:02;;;;;;;0.38;0.10;;;8.30;99.90;;;;;;5004880;28;20042;-69
2023/11/16 01:08:33;;;;;;;0.22;0.10;;;8.30;99.90;;;;;;5009060;28;20041;-69
2023/11/16 01:11:09;;;;;;;0.98;0.20;;;8.30;99.90;;;;;;5039526;28;20045;-69
2023/11/16 01:13:41;;;;;;;4.70;0.20;;;8.30;99.90;;;;;;5028957;28;20046;-69
2023/11/16 01:16:15;;;;;;;0.20;0.10;;;8.40;99.90;;;;;;5007141;28;20103;-69
2023/11/16 01:18:50;;;;;;;3.30;0.38;;;8.40;99.90;;;;;;5009032;28;20175;-69
2023/11/16 01:21:19;;;;;;;0.00;0.00;;;8.50;99.90;;;;;;5005978;28;20042;-69
2023/11/16 01:23:46;;;;;;;0.20;0.00;;;8.40;99.90;;;;;;5001314;28;20463;-68
2023/11/16 01:26:15;;;;;;;5.88;0.10;;;8.40;99.90;;;;;;5011519;28;20041;-69
2023/11/16 01:28:46;;;;;;;0.00;0.00;;;8.50;99.90;;;;;;5005457;28;20483;-68
2023/11/16 01:31:17;;;;;;;0.00;0.00;;;8.40;99.90;;;;;;5013487;28;20046;-69
2023/11/16 01:33:43;;;;;;;0.10;0.10;;;8.40;99.90;;;;;;5005611;28;20081;-69
2023/11/16 01:36:10;;;;;;;0.73;0.20;;;8.40;99.90;;;;;;5041804;28;20049;-68
2023/11/16 01:38:39;;;;;;;2.17;0.10;;;8.40;99.90;;;;;;5004056;28;20049;-69
2023/11/16 01:41:09;;;;;;;0.00;0.00;;;8.40;99.90;;;;;;5040163;28;20124;-69
2023/11/16 01:43:36;;;;;;;0.63;0.10;;;8.40;99.90;;;;;;5040465;28;20041;-69
2023/11/16 01:46:07;;;;;;;2.45;0.10;;;8.40;99.90;;;;;;5007135;28;20046;-68
2023/11/16 01:48:42;;;;;;;0.38;0.15;;;8.40;99.90;;;;;;5006126;28;20046;-69
2023/11/16 01:51:14;;;;;;;0.68;0.10;;;8.40;99.90;;;;;;5004012;28;20125;-69
2023/11/16 01:53:43;;;;;;;0.20;0.10;;;8.40;99.90;;;;;;5010163;28;20057;-68
2023/11/16 01:56:09;;;;;;;2.20;0.25;;;8.40;99.90;;;;;;5009052;28;20054;-69
2023/11/16 01:58:35;;;;;;;2.45;0.15;;;8.40;99.90;;;;;;5043639;28;20090;-69
2023/11/16 02:01:01;;;;;;;1.55;0.20;;;8.40;99.90;;;;;;5006094;28;20042;-69
2023/11/16 02:03:28;;;;;;;0.65;0.08;;;8.30;99.90;;;;;;5013382;28;20080;-69
2023/11/16 02:05:55;;;;;;;0.52;0.17;;;8.30;99.90;;;;;;5040185;28;20038;-69
2023/11/16 02:08:22;;;;;;;3.00;0.20;;;8.10;99.90;;;;;;5001984;28;20125;-69
2023/11/16 02:10:47;;;;;;;1.65;0.30;;;8.10;99.90;;;;;;5004930;28;20045;-68
2023/11/16 02:13:18;;;;;;;2.30;0.10;;;8.00;99.90;;;;;;5008438;28;20044;-69
2023/11/16 02:15:45;;;;;;;3.53;0.10;;;7.90;99.90;;;;;;5007332;28;20049;-69
2023/11/16 02:18:14;;;;;;;0.75;0.30;;;7.90;99.90;;;;;;5010702;28;20041;-69
2023/11/16 02:20:41;;;;;;;0.00;0.00;;;7.80;99.90;;;;;;5005063;28;20064;-69
2023/11/16 02:23:07;;;;;;;2.35;0.50;;;7.80;99.90;;;;;;5008333;28;20037;-69
2023/11/16 02:25:44;;;;;;;0.00;0.00;;;7.80;99.90;;;;;;5033852;28;20038;-69
2023/11/16 02:28:10;;;;;;;2.97;0.30;;;7.70;99.90;;;;;;5012485;28;20151;-69
2023/11/16 02:30:36;;;;;;;2.08;0.60;;;7.60;99.90;;;;;;5006229;28;20048;-73
2023/11/16 02:33:05;;;;;;;0.00;0.00;;;7.60;99.90;;;;;;5043898;28;20065;-69
2023/11/16 02:35:32;;;;;;;0.00;0.00;;;7.50;99.90;;;;;;5040277;28;20064;-69
2023/11/16 02:37:58;;;;;;;0.00;0.00;;;7.40;99.90;;;;;;4999334;28;20062;-69
2023/11/16 02:40:25;;;;;;;0.00;0.00;;;7.40;99.90;;;;;;5036926;28;20099;-69
2023/11/16 02:42:52;;;;;;;0.00;0.00;;;7.40;99.90;;;;;;5007831;28;20061;-69
2023/11/16 02:45:24;;;;;;;0.10;0.00;;;7.30;99.90;;;;;;5038493;28;20100;-69
2023/11/16 02:47:50;;;;;;;1.75;0.20;;;7.30;99.90;;;;;;5033691;28;20506;-69
2023/11/16 02:50:17;;;;;;;0.10;0.00;;;7.30;99.90;;;;;;5008972;28;20061;-69
2023/11/16 02:52:43;;;;;;;0.22;0.10;;;7.20;99.90;;;;;;5040068;28;20050;-69
2023/11/16 02:55:09;;;;;;;4.15;0.10;;;7.20;99.90;;;;;;5001818;28;20068;-69
2023/11/16 02:57:41;;;;;;;0.00;0.00;;;7.20;99.90;;;;;;5002758;28;20054;-69
2023/11/16 03:00:12;;;;;;;0.38;0.10;;;7.10;99.90;;;;;;5002502;28;20038;-69
2023/11/16 03:02:42;;;;;;;1.50;0.40;;;7.00;99.90;;;;;;5024228;28;20475;-69
2023/11/16 03:05:10;;;;;;;0.00;0.00;;;7.00;99.90;;;;;;5001775;28;20092;-69
2023/11/16 03:07:37;;;;;;;0.10;0.03;;;6.90;99.90;;;;;;5032315;28;20046;-69
2023/11/16 03:10:05;;;;;;;0.20;0.10;;;6.80;99.90;;;;;;5001411;28;20042;-68
2023/11/16 03:12:31;;;;;;;0.00;0.00;;;6.80;99.90;;;;;;5006472;28;20057;-68
2023/11/16 03:14:58;;;;;;;0.30;0.00;;;6.70;99.90;;;;;;5033537;28;20046;-68
2023/11/16 03:17:24;;;;;;;0.10;0.10;;;6.70;99.90;;;;;;5005389;28;20047;-68
2023/11/16 03:19:50;;;;;;;0.00;0.00;;;6.60;99.90;;;;;;5006467;28;20536;-69
2023/11/16 03:22:16;;;;;;;1.75;0.08;;;6.50;99.90;;;;;;5005496;28;20042;-68
2023/11/16 03:24:42;;;;;;;1.27;0.22;;;6.50;99.90;;;;;;5004396;28;20038;-69
2023/11/16 03:27:09;;;;;;;2.55;0.10;;;6.50;99.90;;;;;;5038019;28;20065;-68
2023/11/16 03:29:37;;;;;;;0.47;0.30;;;6.50;99.90;;;;;;5026713;28;20043;-68
2023/11/16 03:32:09;;;;;;;0.17;0.10;;;6.50;99.90;;;;;;5036179;28;20069;-68
2023/11/16 03:34:35;;;;;;;0.30;0.00;;;6.40;99.90;;;;;;5002152;28;20497;-69
2023/11/16 03:37:04;;;;;;;0.20;0.10;;;6.30;99.90;;;;;;5033034;28;20112;-69
2023/11/16 03:39:31;;;;;;;0.05;0.00;;;6.30;99.90;;;;;;5038089;28;20046;-68
2023/11/16 03:41:58;;;;;;;0.00;0.00;;;6.20;99.90;;;;;;5002136;28;20124;-68
2023/11/16 03:44:26;;;;;;;1.67;0.15;;;6.20;99.90;;;;;;5008955;28;20131;-69
2023/11/16 03:46:53;;;;;;;0.10;0.00;;;6.20;99.90;;;;;;5003837;28;20493;-68
2023/11/16 03:49:19;;;;;;;1.67;0.20;;;6.10;99.90;;;;;;5036609;28;20136;-68
2023/11/16 03:51:45;;;;;;;0.22;0.17;;;6.00;99.90;;;;;;5038043;28;21873;-68
2023/11/16 03:54:11;;;;;;;1.35;0.20;;;6.00;99.90;;;;;;4997374;28;20186;-68
2023/11/16 03:56:37;;;;;;;1.85;0.10;;;5.90;99.90;;;;;;5007859;28;20211;-69
2023/11/16 03:59:03;;;;;;;0.85;0.10;;;5.90;99.90;;;;;;5037112;28;20257;-68
2023/11/16 04:01:36;;;;;;;0.28;0.05;;;5.90;99.90;;;;;;5002200;28;20056;-68
2023/11/16 04:04:02;;;;;;;0.00;0.00;;;5.80;99.90;;;;;;5005844;28;20144;-69
2023/11/16 04:06:29;;;;;;;0.00;0.00;;;5.70;99.90;;;;;;5036908;28;20569;-69
2023/11/16 04:08:56;;;;;;;2.05;0.10;;;5.70;99.90;;;;;;5036878;28;20151;-69
2023/11/16 04:11:25;;;;;;;1.23;0.17;;;5.60;99.90;;;;;;5010027;28;20060;-69
2023/11/16 04:13:51;;;;;;;0.98;0.38;;;5.60;99.90;;;;;;5000707;28;20049;-69
2023/11/16 04:16:20;;;;;;;0.00;0.00;;;5.60;99.90;;;;;;5006754;28;20042;-68
2023/11/16 04:18:49;;;;;;;1.65;0.45;;;5.50;99.90;;;;;;5005637;28;20042;-69
2023/11/16 04:21:18;;;;;;;1.15;0.10;;;5.50;99.90;;;;;;5004932;28;20042;-68
2023/11/16 04:23:52;;;;;;;0.00;0.00;;;5.40;99.90;;;;;;5031572;28;20045;-68
2023/11/16 04:26:21;;;;;;;2.28;0.00;;;5.40;99.90;;;;;;5006012;28;20049;-68
2023/11/16 04:28:48;;;;;;;0.00;0.00;;;5.30;99.90;;;;;;5005629;28;20529;-68
2023/11/16 04:31:15;;;;;;;0.00;0.00;;;5.30;99.90;;;;;;5040354;28;20038;-68
2023/11/16 04:33:41;;;;;;;0.00;0.00;;;5.30;99.90;;;;;;5000615;28;20046;-68
2023/11/16 04:36:07;;;;;;;0.00;0.00;;;5.30;99.90;;;;;;5005715;28;20806;-68
2023/11/16 04:38:34;;;;;;;0.98;0.10;;;5.20;99.90;;;;;;5004597;28;20513;-69
2023/11/16 04:41:02;;;;;;;0.00;0.00;;;5.20;99.90;;;;;;5001590;28;20117;-68
2023/11/16 04:43:30;;;;;;;0.05;0.00;;;5.20;99.90;;;;;;5002973;28;20042;-68
2023/11/16 04:45:56;;;;;;;0.57;0.10;;;5.10;99.90;;;;;;5018612;28;20136;-68
2023/11/16 04:48:22;;;;;;;0.00;0.00;;;5.10;99.90;;;;;;5003597;28;20034;-68
2023/11/16 04:50:48;;;;;;;0.00;0.00;;;5.00;99.90;;;;;;5034847;28;20116;-68
2023/11/16 04:53:14;;;;;;;0.00;0.00;;;5.00;99.90;;;;;;5031152;28;20081;-68
2023/11/16 04:55:40;;;;;;;0.00;0.00;;;5.00;99.90;;;;;;5003172;28;20038;-68
2023/11/16 04:58:06;;;;;;;0.55;0.10;;;4.90;99.90;;;;;;5055565;28;20046;-68
2023/11/16 05:00:32;;;;;;;0.10;0.10;;;4.80;99.90;;;;;;4999550;28;20038;-68
2023/11/16 05:02:58;;;;;;;0.20;0.00;;;4.90;99.90;;;;;;5037636;28;20129;-68
2023/11/16 05:05:24;;;;;;;0.20;0.10;;;4.80;99.90;;;;;;5007420;28;20117;-68
2023/11/16 05:07:49;;;;;;;0.00;0.00;;;4.80;99.90;;;;;;5033291;28;20071;-68
2023/11/16 05:10:16;;;;;;;3.75;0.30;;;4.80;99.90;;;;;;5005978;28;20042;-68
2023/11/16 05:12:44;;;;;;;0.55;0.20;;;4.80;99.90;;;;;;5005050;28;20108;-68
2023/11/16 05:15:11;;;;;;;2.08;0.00;;;4.80;99.90;;;;;;5003351;28;20058;-68
2023/11/16 05:17:36;;;;;;;0.00;0.00;;;4.70;99.90;;;;;;5039359;28;20296;-68
2023/11/16 05:20:03;;;;;;;0.10;0.00;;;4.70;99.90;;;;;;5034824;28;20042;-68
2023/11/16 05:22:29;;;;;;;0.00;0.00;;;4.70;99.90;;;;;;5032425;28;20091;-68
2023/11/16 05:24:55;;;;;;;0.00;0.00;;;4.60;99.90;;;;;;5002035;28;20146;-68
2023/11/16 05:27:21;;;;;;;0.25;0.00;;;4.60;99.90;;;;;;5006112;28;20034;-68
2023/11/16 05:29:46;;;;;;;0.10;0.00;;;4.60;99.90;;;;;;5001474;28;20187;-68
2023/11/16 05:32:12;;;;;;;0.10;0.10;;;4.50;99.90;;;;;;5039063;28;20053;-68
2023/11/16 05:34:38;;;;;;;18.67;9.95;;;4.50;99.90;;;;;;5007673;28;20038;-68
2023/11/16 05:37:04;;;;;;;15.38;8.13;;;4.50;99.90;;;;;;5032727;28;20057;-67
2023/11/16 05:39:30;;;;;;;1.65;0.77;;;4.40;99.90;;;;;;5031271;28;20046;-68
2023/11/16 05:41:56;;;;;;;0.93;0.35;;;4.40;99.90;;;;;;5037363;28;20216;-68
2023/11/16 05:44:22;;;;;;;0.05;0.00;;;4.40;99.90;;;;;;5002110;28;20070;-68
2023/11/16 05:46:48;;;;;;;1.95;0.45;;;4.30;99.90;;;;;;4998007;28;20034;-68
2023/11/16 05:49:15;;;;;;;0.00;0.00;;;4.30;99.90;;;;;;5001291;28;20039;-68
2023/11/16 05:51:41;;;;;;;3.75;0.30;;;4.30;99.90;;;;;;5002312;28;20046;-67
2023/11/16 05:54:07;;;;;;;0.00;0.00;;;4.30;99.90;;;;;;5010898;28;20140;-68
2023/11/16 05:56:40;;;;;;;0.00;0.00;;;4.20;99.90;;;;;;5037752;28;20061;-68
2023/11/16 05:59:08;;;;;;;0.85;0.10;;;4.20;99.90;;;;;;5010606;28;20046;-68
2023/11/16 06:01:35;;;;;;;0.20;0.20;;;4.20;99.90;;;;;;5007599;28;20045;-68
2023/11/16 06:04:01;;;;;;;0.10;0.10;;;4.10;99.90;;;;;;5010438;28;20049;-68
2023/11/16 06:06:27;;;;;;;0.00;0.00;;;4.10;99.90;;;;;;5039497;28;20049;-68
2023/11/16 06:08:53;;;;;;;1.48;0.52;;;4.10;99.90;;;;;;5039620;28;20352;-68
2023/11/16 06:11:18;;;;;;;0.00;0.00;;;4.00;99.90;;;;;;5038330;28;20057;-68
2023/11/16 06:13:44;;;;;;;0.00;0.00;;;4.00;99.90;;;;;;5013397;28;20116;-67
2023/11/16 06:16:12;;;;;;;0.43;0.10;;;4.00;99.90;;;;;;5035542;28;20041;-67
2023/11/16 06:18:39;;;;;;;0.60;0.20;;;3.90;99.90;;;;;;5006106;28;20049;-67
2023/11/16 06:21:05;;;;;;;0.15;0.10;;;3.90;99.90;;;;;;5006049;28;20152;-67
2023/11/16 06:23:31;;;;;;;0.03;0.00;;;3.90;99.90;;;;;;5040452;28;20080;-67
2023/11/16 06:25:57;;;;;;;0.03;0.00;;;3.90;99.90;;;;;;5007988;28;20136;-67
2023/11/16 06:28:23;;;;;;;0.85;0.10;;;3.90;99.90;;;;;;5038176;28;20062;-67
2023/11/16 06:30:48;;;;;;;0.47;0.30;;;3.80;99.90;;;;;;5008973;28;20334;-67
2023/11/16 06:33:14;;;;;;;0.40;0.08;;;3.80;99.90;;;;;;5040864;28;20125;-67
2023/11/16 06:35:40;;;;;;;0.10;0.00;;;3.80;99.90;;;;;;5005541;28;20108;-67
2023/11/16 06:38:09;;;;;;;0.05;0.00;;;3.80;99.90;;;;;;5038115;28;20034;-68
2023/11/16 06:40:35;;;;;;;0.13;0.03;;;3.70;99.90;;;;;;5008960;28;20077;-67
2023/11/16 06:43:03;;;;;;;0.05;0.00;;;3.70;99.90;;;;;;5003693;28;20057;-67
2023/11/16 06:45:29;;;;;;;3.53;0.10;;;3.70;99.90;;;;;;5013088;28;20087;-67
2023/11/16 06:47:55;;;;;;;0.00;0.00;;;3.60;99.90;;;;;;5011288;28;20065;-68
2023/11/16 06:50:22;;;;;;;0.25;0.08;;;3.60;99.90;;;;;;5009364;28;20133;-67
2023/11/16 06:52:49;;;;;;;0.10;0.05;;;3.60;99.90;;;;;;5008794;28;20137;-67
2023/11/16 06:55:16;;;;;;;0.00;0.00;;;3.60;99.90;;;;;;5010912;28;20073;-67
2023/11/16 06:57:43;;;;;;;0.10;0.10;;;3.60;99.90;;;;;;5009143;28;20057;-67
2023/11/16 07:00:15;;;;;;;0.00;0.00;;;3.60;99.90;;;;;;5013230;28;20044;-67
2023/11/16 07:02:44;;;;;;;0.00;0.00;;;3.50;99.90;;;;;;5046523;28;20058;-67
2023/11/16 07:05:11;;;;;;;0.00;0.00;;;3.50;99.90;;;;;;5006044;28;20080;-67
2023/11/16 07:07:39;;;;;;;0.10;0.03;;;3.50;99.90;;;;;;5015248;28;20046;-67
2023/11/16 07:10:08;;;;;;;0.20;0.15;;;3.50;99.90;;;;;;5009010;28;20073;-67
2023/11/16 07:12:34;;;;;;;0.43;0.28;;;3.50;99.90;;;;;;5041331;28;20125;-67
2023/11/16 07:15:01;;;;;;;0.20;0.10;;;3.40;99.90;;;;;;5040341;28;20137;-67
2023/11/16 07:17:31;;;;;;;0.17;0.00;;;3.40;99.90;;;;;;5006519;28;20050;-67
2023/11/16 07:19:57;;;;;;;1.13;0.20;;;3.40;99.90;;;;;;5009758;28;20095;-67
2023/11/16 07:22:25;;;;;;;1.08;0.30;;;3.40;99.90;;;;;;5034929;28;20120;-67
2023/11/16 07:24:51;;;;;;;0.95;0.10;;;3.40;99.90;;;;;;5002668;28;20394;-67
2023/11/16 07:27:17;;;;;;;2.17;0.10;;;3.40;99.90;;;;;;5009498;28;20038;-67
2023/11/16 07:29:43;;;;;;;0.43;0.28;;;3.40;99.90;;;;;;5008917;28;20441;-67
2023/11/16 07:32:09;;;;;;;0.10;0.10;;;3.50;99.90;;;;;;5010043;28;20048;-67
2023/11/16 07:34:39;;;;;;;0.00;0.00;;;3.40;99.90;;;;;;5036154;28;20074;-67
2023/11/16 07:37:05;;;;;;;0.70;0.20;;;3.50;99.90;;;;;;5036359;28;20117;-67
2023/11/16 07:39:31;;;;;;;0.57;0.32;;;3.50;99.90;;;;;;5011507;28;20117;-67
2023/11/16 07:41:59;;;;;;;0.38;0.22;;;3.60;99.90;;;;;;5012838;28;20237;-67
2023/11/16 07:44:25;;;;;;;0.00;0.00;;;3.70;99.90;;;;;;5048367;28;20049;-67
2023/11/16 07:46:51;;;;;;;0.00;0.00;;;3.70;99.90;;;;;;5015600;28;20474;-67
2023/11/16 07:49:17;;;;;;;0.85;0.43;;;3.80;99.90;;;;;;4999835;28;20091;-67
2023/11/16 07:51:43;;;;;;;0.30;0.20;;;3.80;99.90;;;;;;5006746;28;20034;-68
2023/11/16 07:54:11;;;;;;;0.25;0.20;;;3.90;99.90;;;;;;5032212;28;20050;-68
2023/11/16 07:56:49;;;;;;;0.00;0.00;;;4.10;99.90;;;;;;5005490;28;20056;-68
2023/11/16 07:59:18;;;;;;;0.20;0.10;;;4.40;99.90;;;;;;5036530;28;20050;-68
2023/11/16 08:01:55;;;;;;;0.10;0.00;;;4.60;99.90;;;;;;5008311;28;20034;-66
2023/11/16 08:04:25;;;;;;;3.20;0.35;;;5.10;99.90;;;;;;5037382;28;20069;-66
2023/11/16 08:06:58;;;;;;;0.65;0.55;;;5.40;99.90;;;;;;5005156;28;20386;-67
2023/11/16 08:09:26;;;;;;;0.25;0.15;;;5.40;99.90;;;;;;5003158;28;20042;-67
2023/11/16 08:11:54;;;;;;;1.95;0.50;;;5.50;99.90;;;;;;5040961;28;20085;-66
2023/11/16 08:14:26;;;;;;;0.90;0.30;;;5.40;99.90;;;;;;5011428;28;20490;-67
2023/11/16 08:17:24;;;;;;;1.25;0.30;;;5.40;99.90;;;;;;5038320;28;20041;-67
2023/11/16 08:19:53;;;;;;;3.63;1.55;;;5.30;99.90;;;;;;5018350;28;20585;-67
2023/11/16 08:22:19;;;;;;;0.05;0.05;;;5.50;99.90;;;;;;5039088;28;20026;-67
2023/11/16 08:24:45;;;;;;;0.60;0.22;;;5.90;99.90;;;;;;5006766;28;20390;-67
2023/11/16 08:27:11;;;;;;;0.25;0.22;;;6.30;99.90;;;;;;5042619;28;20069;-67
2023/11/16 08:29:37;;;;;;;0.00;0.00;;;6.80;99.90;;;;;;5037039;28;20356;-67
2023/11/16 08:32:04;;;;;;;0.03;0.00;;;8.00;99.90;;;;;;5005157;28;20108;-67
2023/11/16 08:34:31;;;;;;;0.10;0.00;;;8.70;99.90;;;;;;5009664;28;20520;-67
2023/11/16 08:36:57;;;;;;;0.20;0.20;;;9.80;99.90;;;;;;5033495;28;20050;-67
2023/11/16 08:39:23;;;;;;;2.83;0.40;;;11.00;99.90;;;;;;5007642;28;20034;-67
2023/11/16 08:41:49;;;;;;;0.20;0.10;;;12.00;99.90;;;;;;5002261;28;20038;-67
2023/11/16 08:44:16;;;;;;;0.10;0.10;;;12.90;99.90;;;;;;5008722;28;20362;-67
2023/11/16 08:46:43;;;;;;;3.00;0.15;;;13.60;99.90;;;;;;5001972;28;20085;-67
2023/11/16 08:49:10;;;;;;;0.30;0.00;;;13.40;99.90;;;;;;5001872;28;20445;-67
2023/11/16 08:51:38;;;;;;;2.65;0.32;;;12.80;99.90;;;;;;5002150;28;20128;-68
2023/11/16 08:54:07;;;;;;;0.90;0.20;;;13.00;99.90;;;;;;5006236;28;20066;-68
2023/11/16 08:56:35;;;;;;;2.00;0.28;;;13.80;99.90;;;;;;5036205;28;20054;-67
2023/11/16 08:59:07;;;;;;;0.30;0.10;;;14.60;99.90;;;;;;5039784;28;20045;-68
2023/11/16 09:01:37;;;;;;;1.48;0.10;;;15.20;99.90;;;;;;5000403;28;20038;-68
2023/11/16 09:04:04;;;;;;;0.90;0.22;;;15.90;99.90;;;;;;5004964;28;20056;-68
2023/11/16 09:06:30;;;;;;;0.38;0.00;;;16.40;99.90;;;;;;5007857;28;20045;-68
2023/11/16 09:08:59;;;;;;;1.17;0.20;;;16.40;99.90;;;;;;4998412;28;20049;-68
2023/11/16 09:11:27;;;;;;;1.05;0.10;;;16.60;99.90;;;;;;5004199;28;20042;-68
2023/11/16 09:13:53;;;;;;;0.22;0.22;;;16.50;99.90;;;;;;5042286;28;20117;-68
2023/11/16 09:16:19;;;;;;;0.40;0.30;;;16.70;99.90;;;;;;5005482;28;20125;-68
2023/11/16 09:18:45;;;;;;;0.45;0.10;;;16.90;99.90;;;;;;4998957;28;20481;-68
2023/11/16 09:21:12;;;;;;;1.02;0.10;;;16.50;99.90;;;;;;5039837;28;20046;-68
2023/11/16 09:23:38;;;;;;;0.60;0.13;;;15.40;99.90;;;;;;5004890;28;20078;-68
2023/11/16 09:26:04;;;;;;;1.13;0.10;;;14.10;99.90;;;;;;5010306;28;20065;-68
2023/11/16 09:28:35;;;;;;;0.75;0.22;;;13.30;99.90;;;;;;5038453;28;20073;-68
2023/11/16 09:31:01;;;;;;;0.13;0.10;;;12.90;99.90;;;;;;5007349;28;20042;-68
2023/11/16 09:33:27;;;;;;;1.05;0.15;;;12.60;99.90;;;;;;5007841;28;20038;-68
2023/11/16 09:35:54;;;;;;;1.83;0.47;;;12.60;99.90;;;;;;5007777;28;20038;-68
2023/11/16 09:38:20;;;;;;;0.20;0.00;;;12.50;99.90;;;;;;5002222;28;20145;-68
2023/11/16 09:40:48;;;;;;;5.28;0.20;;;12.90;99.90;;;;;;5010023;28;20121;-68
2023/11/16 09:43:17;;;;;;;0.20;0.10;;;13.70;99.90;;;;;;5007572;28;20046;-68
2023/11/16 09:45:53;;;;;;;0.20;0.10;;;14.70;99.90;;;;;;5006771;28;20072;-68
2023/11/16 09:48:22;;;;;;;3.25;0.05;;;15.80;99.90;;;;;;5007822;28;20088;-69
2023/11/16 09:50:50;;;;;;;1.17;0.20;;;16.60;99.90;;;;;;5036488;28;20137;-69
2023/11/16 09:53:17;;;;;;;0.45;0.13;;;16.90;99.90;;;;;;5009793;28;20044;-69
2023/11/16 09:56:04;;;;;;;0.22;0.10;;;16.50;99.90;;;;;;5034931;28;20391;-68
2023/11/16 09:58:36;;;;;;;0.68;0.10;;;15.50;99.90;;;;;;5005202;28;20050;-68
2023/11/16 10:01:08;;;;;;;0.17;0.10;;;14.20;99.90;;;;;;5042832;28;20048;-69
2023/11/16 10:03:36;;;;;;;0.43;0.10;;;13.20;99.90;;;;;;5008313;28;20041;-68
2023/11/16 10:06:06;;;;;;;2.55;0.10;;;12.30;99.90;;;;;;5010460;28;20040;-69
2023/11/16 10:08:33;;;;;;;3.00;0.10;;;11.60;99.90;;;;;;5010699;28;20108;-69
2023/11/16 10:11:05;;;;;;;2.78;0.20;;;11.00;99.90;;;;;;5010209;28;20038;-69
2023/11/16 10:13:32;;;;;;;3.60;0.10;;;10.60;99.90;;;;;;5005279;28;20451;-69
2023/11/16 10:16:11;;;;;;;0.20;0.10;;;10.20;99.90;;;;;;5009079;28;20038;-69
2023/11/16 10:18:51;;;;;;;1.17;0.08;;;9.90;99.90;;;;;;5006616;28;20050;-69
2023/11/16 10:21:16;;;;;;;0.65;0.20;;;9.70;99.90;;;;;;5007885;28;20046;-70
2023/11/16 10:23:45;;;;;;;1.35;0.28;;;9.50;99.90;;;;;;5005899;28;20736;-69
2023/11/16 10:26:11;;;;;;;1.20;0.25;;;9.40;99.90;;;;;;5037168;28;20042;-69
2023/11/16 10:28:38;;;;;;;0.10;0.10;;;9.20;99.90;;;;;;5043418;28;20522;-68
2023/11/16 10:31:05;;;;;;;0.68;0.17;;;9.10;99.90;;;;;;5007985;28;20042;-69
2023/11/16 10:33:31;;;;;;;0.43;0.05;;;9.10;99.90;;;;;;5006566;28;20042;-68
2023/11/16 10:35:59;;;;;;;0.80;0.10;;;9.00;99.90;;;;;;5002380;28;20049;-69
2023/11/16 10:38:27;;;;;;;0.20;0.13;;;8.90;99.90;;;;;;5013209;28;20405;-69
2023/11/16 10:40:54;;;;;;;0.38;0.15;;;8.90;99.90;;;;;;5010158;28;20054;-69
2023/11/16 10:43:26;;;;;;;0.25;0.10;;;8.90;99.90;;;;;;5006179;28;20045;-69
2023/11/16 10:45:59;;;;;;;0.25;0.00;;;8.80;99.90;;;;;;5006258;28;20034;-69
2023/11/16 10:48:25;;;;;;;0.00;0.00;;;8.80;99.90;;;;;;5037796;28;20049;-69
2023/11/16 10:50:52;;;;;;;0.47;0.10;;;8.80;99.90;;;;;;5042498;28;20038;-69
2023/11/16 10:53:23;;;;;;;1.58;0.00;;;8.80;99.90;;;;;;5026347;28;20046;-69
2023/11/16 10:55:58;;;;;;;0.10;0.00;;;8.70;99.90;;;;;;5002639;28;20094;-69
2023/11/16 10:58:31;;;;;;;0.20;0.00;;;8.80;99.90;;;;;;5013742;28;20478;-69
2023/11/16 11:01:07;;;;;;;0.10;0.08;;;8.70;99.90;;;;;;5015974;28;20075;-69
2023/11/16 11:03:38;;;;;;;0.95;0.28;;;8.70;99.90;;;;;;5018674;28;20051;-69
2023/11/16 11:06:07;;;;;;;0.10;0.10;;;8.60;99.90;;;;;;5007047;28;20260;-69
2023/11/16 11:08:36;;;;;;;1.80;0.45;;;8.70;99.90;;;;;;5007478;28;20056;-69
2023/11/16 11:11:07;;;;;;;0.40;0.20;;;8.70;99.90;;;;;;5037737;28;20057;-69
2023/11/16 11:13:34;;;;;;;4.28;0.22;;;8.60;99.90;;;;;;5005499;28;20049;-69
2023/11/16 11:16:07;;;;;;;0.00;0.00;;;8.50;99.90;;;;;;5037677;28;20057;-69
2023/11/16 11:18:44;;;;;;;1.17;0.30;;;8.50;99.90;;;;;;5040455;28;20042;-69
2023/11/16 11:21:10;;;;;;;3.40;0.30;;;8.50;99.90;;;;;;5039954;28;20077;-69
2023/11/16 11:23:37;;;;;;;6.40;0.45;;;8.50;99.90;;;;;;5019917;28;20204;-69
2023/11/16 11:26:07;;;;;;;4.40;0.30;;;8.50;99.90;;;;;;5008577;28;20105;-70
2023/11/16 11:28:38;;;;;;;0.57;0.30;;;8.50;99.90;;;;;;5008844;28;20129;-69
2023/11/16 11:31:05;;;;;;;1.08;0.13;;;8.50;99.90;;;;;;5002943;28;20113;-69
2023/11/16 11:33:45;;;;;;;1.35;0.28;;;8.50;99.90;;;;;;5009819;28;20133;-69
2023/11/16 11:36:17;;;;;;;0.82;0.30;;;8.50;99.90;;;;;;5039285;28;20556;-69
2023/11/16 11:38:50;;;;;;;0.40;0.10;;;8.50;99.90;;;;;;5006148;28;20439;-69
2023/11/16 11:41:18;;;;;;;2.00;0.10;;;8.60;99.90;;;;;;5033232;28;20478;-69
2023/11/16 11:43:45;;;;;;;0.35;0.10;;;8.60;99.90;;;;;;5007078;28;20155;-70
2023/11/16 11:46:16;;;;;;;0.40;0.10;;;8.60;99.90;;;;;;5004952;28;20042;-70
2023/11/16 11:48:43;;;;;;;0.00;0.00;;;8.70;99.90;;;;;;5013020;28;20048;-69
2023/11/16 11:51:10;;;;;;;0.15;0.10;;;8.60;99.90;;;;;;5036115;28;20148;-69
2023/11/16 11:53:37;;;;;;;0.10;0.00;;;8.60;99.90;;;;;;5040968;28;20061;-69
2023/11/16 11:56:06;;;;;;;0.55;0.10;;;8.70;99.90;;;;;;5009416;28;20097;-70
2023/11/16 11:58:36;;;;;;;1.27;0.17;;;8.70;99.90;;;;;;5037570;28;20053;-69
2023/11/16 12:01:02;;;;;;;0.32;0.15;;;8.80;99.90;;;;;;5045844;28;20073;-69
2023/11/16 12:03:28;;;;;;;0.10;0.05;;;8.80;99.90;;;;;;5003581;28;20455;-69
2023/11/16 12:06:02;;;;;;;0.95;0.10;;;8.90;99.90;;;;;;5007512;28;20066;-69
2023/11/16 12:08:37;;;;;;;3.47;0.10;;;8.80;99.90;;;;;;5034193;28;20078;-69
2023/11/16 12:11:04;;;;;;;1.00;0.25;;;8.80;99.90;;;;;;5005302;28;20049;-69
2023/11/16 12:13:30;;;;;;;0.32;0.28;;;8.80;99.90;;;;;;5004222;28;20092;-70
2023/11/16 12:15:57;;;;;;;0.50;0.20;;;8.90;99.90;;;;;;5007214;28;20048;-70
2023/11/16 12:18:23;;;;;;;3.97;0.30;;;8.90;99.90;;;;;;5034004;28;20046;-70
2023/11/16 12:20:54;;;;;;;0.40;0.20;;;8.90;99.90;;;;;;5040789;28;20095;-69
2023/11/16 12:23:19;;;;;;;0.28;0.20;;;9.00;99.90;;;;;;5008286;28;20069;-69
2023/11/16 12:25:46;;;;;;;3.95;0.35;;;8.90;99.90;;;;;;5038276;28;20065;-70
2023/11/16 12:28:12;;;;;;;5.50;0.68;;;8.90;99.90;;;;;;5002461;28;20784;-71
2023/11/16 12:30:38;;;;;;;0.20;0.20;;;8.90;99.90;;;;;;5008008;28;20117;-69
2023/11/16 12:33:12;;;;;;;0.57;0.28;;;8.80;99.90;;;;;;5029282;28;20414;-69
2023/11/16 12:35:39;;;;;;;1.52;0.20;;;8.80;99.90;;;;;;5040928;28;20049;-69
2023/11/16 12:38:06;;;;;;;2.03;0.30;;;8.80;99.90;;;;;;5036131;28;20770;-70
2023/11/16 12:40:32;;;;;;;0.30;0.20;;;8.70;99.90;;;;;;5035183;28;20119;-69
2023/11/16 12:43:00;;;;;;;2.03;0.10;;;8.70;99.90;;;;;;5003735;28;20054;-70
2023/11/16 12:45:28;;;;;;;0.70;0.13;;;8.70;99.90;;;;;;5004662;28;20053;-70
2023/11/16 12:47:54;;;;;;;3.00;0.30;;;8.60;99.90;;;;;;5044154;28;20045;-69
2023/11/16 12:50:20;;;;;;;1.33;0.32;;;8.60;99.90;;;;;;5010447;28;20085;-69
2023/11/16 12:52:47;;;;;;;0.10;0.10;;;8.50;99.90;;;;;;5029523;28;20096;-70
2023/11/16 12:55:13;;;;;;;0.28;0.10;;;8.50;99.90;;;;;;5037683;28;20775;-69
2023/11/16 12:57:46;;;;;;;1.90;0.35;;;8.40;99.90;;;;;;5001200;28;20076;-69
2023/11/16 13:00:12;;;;;;;0.30;0.20;;;8.40;99.90;;;;;;5005449;28;20049;-70